LIPZ/VCE METAR and TAF weather

Enter ICAO airport designator
Station Type Date Time Source
LIPZ METAR 2019/07/18 10:20 UTC NOAA

LIPZ 181020Z 34005KT 300V010 9999 FEW065 26/17 Q1012 NOSIG


Station Type Date Time Source
LIPZ Decoded METAR 2019/07/18 10:20 UTC NOAA

Venezia / Tessera, Italy (LIPZ) 45-30N 012-20E 6M
Jul 18, 2019 - 06:20 AM EDT / 2019.07.18 1020 UTC
Wind: from the NNW (340 degrees) at 6 MPH (5 KT) (direction variable):0
Visibility: greater than 7 mile(s):0
Sky conditions: mostly clear
Temperature: 78 F (26 C)
Dew Point: 62 F (17 C)
Relative Humidity: 57%
Pressure (altimeter): 29.88 in. Hg (1012 hPa)
ob: LIPZ 181020Z 34005KT 300V010 9999 FEW065 26/17 Q1012 NOSIG
cycle: 10

Station Type Date Time Source
LIPZ TAF 2019/07/18 06:26 UTC NOAA

TAF LIPZ 180500Z 1806/1912 04006KT 9999 SCT020
TEMPO 1806/1812 4000 SHRA
BECMG 1810/1812 15010KT
BECMG 1818/1820 VRB05KT
BECMG 1909/1911 15010KT

Example: see airport list